createdAt,value
2023-03-02T00:02:36.015Z,506.00
2023-03-02T00:06:35.970Z,504.00
2023-03-02T00:10:36.033Z,505.00
2023-03-02T00:14:35.977Z,504.00
2023-03-02T00:18:35.947Z,506.00
2023-03-02T00:22:35.973Z,507.00
2023-03-02T00:26:35.956Z,507.00
2023-03-02T00:30:35.950Z,503.00
2023-03-02T00:34:35.948Z,504.00
2023-03-02T00:38:35.958Z,502.00
2023-03-02T00:42:35.962Z,507.00
2023-03-02T00:46:36.187Z,510.00
2023-03-02T00:50:35.967Z,504.00
2023-03-02T00:54:35.960Z,503.00
2023-03-02T00:58:35.994Z,504.00
2023-03-02T01:02:36.266Z,505.00
2023-03-02T01:06:36.295Z,508.00
2023-03-02T01:10:36.581Z,502.00
2023-03-02T01:14:36.585Z,506.00
2023-03-02T01:18:36.748Z,509.00
2023-03-02T01:22:36.944Z,502.00
2023-03-02T01:26:37.169Z,504.00
2023-03-02T01:30:37.275Z,501.00
2023-03-02T01:34:37.313Z,505.00
2023-03-02T01:38:37.388Z,502.00
2023-03-02T01:42:37.367Z,505.00
2023-03-02T01:46:37.404Z,503.00
2023-03-02T01:50:37.431Z,504.00
2023-03-02T01:54:37.431Z,506.00
2023-03-02T01:58:37.449Z,504.00
2023-03-02T02:02:37.469Z,508.00
2023-03-02T02:06:37.515Z,505.00
2023-03-02T02:10:37.543Z,506.00
2023-03-02T02:14:37.557Z,505.00
2023-03-02T02:18:37.596Z,504.00
2023-03-02T02:22:37.601Z,506.00
2023-03-02T02:26:37.630Z,502.00
2023-03-02T02:30:37.622Z,502.00
2023-03-02T02:34:37.676Z,505.00
2023-03-02T02:38:37.677Z,505.00
2023-03-02T02:42:37.691Z,503.00
2023-03-02T02:46:37.737Z,504.00
2023-03-02T02:50:37.760Z,505.00
2023-03-02T02:54:37.798Z,504.00
2023-03-02T02:58:37.874Z,506.00
2023-03-02T03:02:37.942Z,511.00
2023-03-02T03:06:37.966Z,509.00
2023-03-02T03:10:38.000Z,512.00
2023-03-02T03:14:38.015Z,507.00
2023-03-02T03:18:38.083Z,504.00
2023-03-02T03:22:38.139Z,506.00
2023-03-02T03:26:38.205Z,504.00
2023-03-02T03:30:38.277Z,505.00
2023-03-02T03:34:38.316Z,510.00
2023-03-02T03:38:38.338Z,508.00
2023-03-02T03:42:38.474Z,509.00
2023-03-02T03:46:38.508Z,504.00
2023-03-02T03:50:38.588Z,507.00
2023-03-02T03:54:38.725Z,504.00
2023-03-02T03:58:38.777Z,503.00
2023-03-02T04:02:38.855Z,504.00
2023-03-02T04:06:38.855Z,503.00
2023-03-02T04:10:39.025Z,505.00
2023-03-02T04:14:39.000Z,507.00
2023-03-02T04:18:39.176Z,503.00
2023-03-02T04:22:39.309Z,506.00
2023-03-02T04:26:39.423Z,504.00
2023-03-02T04:30:39.496Z,503.00
2023-03-02T04:34:39.591Z,506.00
2023-03-02T04:38:39.664Z,503.00
2023-03-02T04:42:39.872Z,504.00
2023-03-02T04:46:39.953Z,508.00
2023-03-02T04:50:39.919Z,505.00
2023-03-02T04:54:39.958Z,503.00
2023-03-02T04:58:40.015Z,506.00
2023-03-02T05:02:40.146Z,503.00
2023-03-02T05:06:40.135Z,506.00
2023-03-02T05:10:40.171Z,508.00
2023-03-02T05:14:40.224Z,501.00
2023-03-02T05:18:40.280Z,504.00
2023-03-02T05:22:40.321Z,503.00
2023-03-02T05:26:40.389Z,506.00
2023-03-02T05:30:40.485Z,506.00
2023-03-02T05:34:40.509Z,504.00
2023-03-02T05:38:40.602Z,504.00
2023-03-02T05:42:40.631Z,504.00
2023-03-02T05:46:40.810Z,500.00
2023-03-02T05:50:40.843Z,507.00
2023-03-02T05:54:40.846Z,506.00
2023-03-02T05:58:40.945Z,510.00
2023-03-02T06:02:41.035Z,509.00
2023-03-02T06:06:41.041Z,507.00
2023-03-02T06:10:41.091Z,507.00
2023-03-02T06:14:41.106Z,515.00
2023-03-02T06:18:41.700Z,510.00
2023-03-02T06:22:41.227Z,509.00
2023-03-02T06:26:41.194Z,511.00
2023-03-02T06:30:41.198Z,515.00
2023-03-02T06:34:41.233Z,512.00
2023-03-02T06:38:41.206Z,523.00
2023-03-02T06:42:41.713Z,523.00
2023-03-02T06:46:41.207Z,558.00
2023-03-02T06:50:41.806Z,566.00
2023-03-02T06:54:41.720Z,695.00
2023-03-02T06:58:41.741Z,657.00
2023-03-02T07:02:41.726Z,652.00
2023-03-02T07:06:41.356Z,685.00
2023-03-02T07:10:41.695Z,708.00
2023-03-02T07:14:41.249Z,719.00
2023-03-02T07:18:41.212Z,763.00
2023-03-02T07:22:41.166Z,793.00
2023-03-02T07:26:41.177Z,810.00
2023-03-02T07:30:41.253Z,847.00
2023-03-02T07:34:41.068Z,852.00
2023-03-02T07:38:41.028Z,890.00
2023-03-02T07:42:41.229Z,910.00
2023-03-02T07:46:41.236Z,947.00
2023-03-02T07:50:41.224Z,978.00
2023-03-02T07:54:40.881Z,1013.00
2023-03-02T07:58:40.832Z,570.00
2023-03-02T08:02:41.355Z,593.00
2023-03-02T08:06:42.527Z,616.00
2023-03-02T08:10:41.191Z,647.00
2023-03-02T08:14:42.229Z,688.00
2023-03-02T08:18:41.320Z,769.00
2023-03-02T08:22:41.443Z,891.00
2023-03-02T08:26:41.375Z,931.00
2023-03-02T08:30:41.763Z,953.00
2023-03-02T08:34:41.302Z,961.00
2023-03-02T08:38:41.307Z,1140.00
2023-03-02T08:42:41.267Z,1081.00
2023-03-02T08:46:41.243Z,1132.00
2023-03-02T08:50:41.276Z,1129.00
2023-03-02T08:54:41.121Z,1147.00
2023-03-02T08:58:41.142Z,1215.00
2023-03-02T09:02:41.045Z,1254.00
2023-03-02T09:06:41.773Z,1292.00
2023-03-02T09:10:40.959Z,1298.00
2023-03-02T09:14:40.956Z,765.00
2023-03-02T09:18:41.263Z,922.00
2023-03-02T09:22:40.848Z,953.00
2023-03-02T09:26:41.263Z,987.00
2023-03-02T09:30:41.098Z,1027.00
2023-03-02T09:34:41.272Z,1047.00
2023-03-02T09:38:41.474Z,1060.00
2023-03-02T09:42:44.391Z,1087.00
2023-03-02T09:46:41.778Z,1099.00
2023-03-02T09:50:41.569Z,1223.00
2023-03-02T09:54:41.865Z,1283.00
2023-03-02T09:58:41.501Z,624.00
2023-03-02T10:02:41.935Z,653.00
2023-03-02T10:06:41.407Z,643.00
2023-03-02T10:10:41.362Z,665.00
2023-03-02T10:14:41.356Z,737.00
2023-03-02T10:18:41.778Z,787.00
2023-03-02T10:22:41.282Z,808.00
2023-03-02T10:26:41.239Z,879.00
2023-03-02T10:30:41.365Z,884.00
2023-03-02T10:34:41.334Z,915.00
2023-03-02T10:38:41.563Z,992.00
2023-03-02T10:42:41.729Z,1003.00
2023-03-02T10:46:42.338Z,1014.00
2023-03-02T10:50:42.307Z,1045.00
2023-03-02T10:54:42.148Z,939.00
2023-03-02T10:58:42.065Z,841.00
2023-03-02T11:02:42.052Z,760.00
2023-03-02T11:06:42.031Z,690.00
2023-03-02T11:10:42.292Z,638.00
2023-03-02T11:14:41.913Z,616.00
2023-03-02T11:18:41.884Z,584.00
2023-03-02T11:22:41.859Z,566.00
2023-03-02T11:26:41.803Z,534.00
2023-03-02T11:30:41.791Z,735.00
2023-03-02T11:34:41.736Z,550.00
2023-03-02T11:38:41.819Z,544.00
2023-03-02T11:42:41.824Z,538.00
2023-03-02T11:46:41.676Z,551.00
2023-03-02T11:50:41.582Z,617.00
2023-03-02T11:54:41.556Z,628.00
2023-03-02T11:58:41.600Z,634.00
2023-03-02T12:02:41.833Z,654.00
2023-03-02T12:06:41.446Z,668.00
2023-03-02T12:10:41.448Z,733.00
2023-03-02T12:14:41.373Z,729.00
2023-03-02T12:18:41.351Z,787.00
2023-03-02T12:22:41.312Z,811.00
2023-03-02T12:26:41.261Z,847.00
2023-03-02T12:30:41.367Z,867.00
2023-03-02T12:34:41.407Z,845.00
2023-03-02T12:38:41.278Z,810.00
2023-03-02T12:42:41.312Z,799.00
2023-03-02T12:46:41.944Z,789.00
2023-03-02T12:50:41.506Z,771.00
2023-03-02T12:54:41.616Z,777.00
2023-03-02T12:58:41.672Z,771.00
2023-03-02T13:02:41.823Z,744.00
2023-03-02T13:06:42.022Z,738.00
2023-03-02T13:10:42.108Z,616.00
2023-03-02T13:14:42.243Z,563.00
2023-03-02T13:18:42.409Z,565.00
2023-03-02T13:22:42.918Z,522.00
2023-03-02T13:26:42.875Z,537.00
2023-03-02T13:30:42.659Z,576.00
2023-03-02T13:34:42.547Z,639.00
2023-03-02T13:38:42.483Z,648.00
2023-03-02T13:42:42.466Z,688.00
2023-03-02T13:46:42.615Z,688.00
2023-03-02T13:50:42.409Z,724.00
2023-03-02T13:54:42.343Z,722.00
2023-03-02T13:58:42.289Z,718.00
2023-03-02T14:02:42.271Z,744.00
2023-03-02T14:06:42.213Z,803.00
2023-03-02T14:10:42.188Z,1041.00
2023-03-02T14:14:44.438Z,1184.00
2023-03-02T14:18:42.377Z,861.00
2023-03-02T14:22:42.345Z,650.00
2023-03-02T14:26:42.426Z,601.00
2023-03-02T14:30:42.636Z,509.00
2023-03-02T14:34:42.685Z,498.00
2023-03-02T14:38:42.794Z,554.00
2023-03-02T14:42:43.392Z,560.00
2023-03-02T14:46:43.279Z,612.00
2023-03-02T14:50:43.502Z,537.00
2023-03-02T14:54:43.644Z,565.00
2023-03-02T14:58:43.621Z,549.00
2023-03-02T15:02:43.698Z,561.00
2023-03-02T15:06:43.530Z,572.00
2023-03-02T15:10:43.474Z,604.00
2023-03-02T15:14:43.887Z,703.00
2023-03-02T15:18:43.916Z,680.00
2023-03-02T15:22:43.397Z,711.00
2023-03-02T15:26:43.358Z,616.00
2023-03-02T15:30:43.302Z,612.00
2023-03-02T15:34:43.290Z,612.00
2023-03-02T15:38:43.251Z,613.00
2023-03-02T15:42:43.211Z,616.00
2023-03-02T15:46:43.200Z,617.00
2023-03-02T15:50:43.127Z,611.00
2023-03-02T15:54:43.195Z,614.00
2023-03-02T15:58:43.154Z,616.00
2023-03-02T16:02:43.143Z,608.00
2023-03-02T16:06:43.074Z,599.00
2023-03-02T16:10:43.108Z,592.00
2023-03-02T16:14:43.002Z,592.00
2023-03-02T16:18:42.992Z,582.00
2023-03-02T16:22:42.956Z,580.00
2023-03-02T16:26:42.963Z,573.00
2023-03-02T16:30:42.842Z,569.00
2023-03-02T16:34:42.942Z,569.00
2023-03-02T16:38:42.772Z,559.00
2023-03-02T16:42:42.746Z,549.00
2023-03-02T16:46:42.718Z,544.00
2023-03-02T16:50:42.689Z,542.00
2023-03-02T16:54:42.946Z,540.00
2023-03-02T16:58:42.608Z,530.00
2023-03-02T17:02:42.561Z,521.00
2023-03-02T17:06:45.781Z,528.00
2023-03-02T17:10:43.467Z,526.00
2023-03-02T17:14:42.449Z,517.00
2023-03-02T17:18:42.415Z,537.00
2023-03-02T17:22:42.514Z,521.00
2023-03-02T17:26:42.563Z,523.00
2023-03-02T17:30:42.554Z,520.00
2023-03-02T17:34:42.565Z,528.00
2023-03-02T17:38:42.553Z,532.00
2023-03-02T17:42:42.503Z,523.00
2023-03-02T17:46:42.638Z,524.00
2023-03-02T17:50:42.528Z,518.00
2023-03-02T17:54:42.535Z,526.00
2023-03-02T17:58:45.351Z,526.00
2023-03-02T18:02:42.522Z,522.00
2023-03-02T18:06:42.470Z,508.00
2023-03-02T18:10:42.424Z,507.00
2023-03-02T18:14:42.419Z,517.00
2023-03-02T18:18:42.348Z,513.00
2023-03-02T18:22:42.332Z,516.00
2023-03-02T18:26:42.295Z,514.00
2023-03-02T18:30:42.226Z,510.00
2023-03-02T18:34:42.208Z,505.00
2023-03-02T18:38:42.164Z,516.00
2023-03-02T18:42:42.128Z,510.00
2023-03-02T18:46:42.198Z,508.00
2023-03-02T18:50:42.055Z,507.00
2023-03-02T18:54:42.014Z,509.00
2023-03-02T18:58:41.977Z,508.00
2023-03-02T19:02:41.938Z,505.00
2023-03-02T19:06:41.916Z,509.00
2023-03-02T19:10:41.881Z,503.00
2023-03-02T19:14:41.810Z,508.00
2023-03-02T19:18:41.799Z,504.00
2023-03-02T19:22:41.745Z,508.00
2023-03-02T19:26:41.702Z,502.00
2023-03-02T19:30:41.721Z,506.00
2023-03-02T19:34:41.648Z,507.00
2023-03-02T19:38:41.648Z,509.00
2023-03-02T19:42:41.570Z,507.00
2023-03-02T19:46:41.513Z,505.00
2023-03-02T19:50:41.468Z,506.00
2023-03-02T19:54:41.468Z,504.00
2023-03-02T19:58:41.430Z,504.00
2023-03-02T20:02:41.367Z,505.00
2023-03-02T20:06:41.449Z,503.00
2023-03-02T20:10:41.545Z,507.00
2023-03-02T20:14:41.616Z,502.00
2023-03-02T20:18:41.754Z,503.00
2023-03-02T20:22:41.890Z,500.00
2023-03-02T20:26:41.988Z,503.00
2023-03-02T20:30:42.296Z,504.00
2023-03-02T20:34:42.233Z,504.00
2023-03-02T20:38:42.399Z,503.00
2023-03-02T20:42:42.481Z,502.00
2023-03-02T20:46:42.649Z,505.00
2023-03-02T20:50:42.766Z,506.00
2023-03-02T20:54:42.929Z,502.00
2023-03-02T20:58:43.090Z,503.00
2023-03-02T21:02:43.197Z,505.00
2023-03-02T21:06:43.341Z,502.00
2023-03-02T21:10:43.513Z,501.00
2023-03-02T21:14:43.713Z,505.00
2023-03-02T21:18:43.843Z,505.00
2023-03-02T21:22:43.997Z,510.00
2023-03-02T21:26:44.198Z,505.00
2023-03-02T21:30:44.370Z,509.00
2023-03-02T21:34:44.511Z,508.00
2023-03-02T21:38:44.697Z,505.00
2023-03-02T21:42:44.882Z,501.00
2023-03-02T21:46:45.114Z,502.00
2023-03-02T21:50:45.323Z,508.00
2023-03-02T21:54:45.519Z,505.00
2023-03-02T21:58:45.729Z,505.00
2023-03-02T22:02:45.725Z,506.00
2023-03-02T22:06:45.660Z,508.00
2023-03-02T22:10:45.622Z,504.00
2023-03-02T22:14:45.597Z,503.00
2023-03-02T22:18:45.533Z,504.00
2023-03-02T22:22:45.506Z,504.00
2023-03-02T22:26:45.499Z,508.00
2023-03-02T22:30:45.428Z,514.00
2023-03-02T22:34:45.430Z,513.00
2023-03-02T22:38:45.412Z,519.00
2023-03-02T22:42:45.369Z,513.00
2023-03-02T22:46:45.445Z,515.00
2023-03-02T22:50:45.338Z,511.00
2023-03-02T22:54:45.252Z,519.00
2023-03-02T22:58:45.216Z,511.00
2023-03-02T23:02:45.198Z,518.00
2023-03-02T23:06:45.196Z,514.00
2023-03-02T23:10:45.154Z,509.00
2023-03-02T23:14:45.077Z,514.00
2023-03-02T23:18:45.036Z,513.00
2023-03-02T23:22:45.247Z,509.00
2023-03-02T23:26:45.269Z,510.00
2023-03-02T23:30:45.165Z,512.00
2023-03-02T23:34:45.119Z,510.00
2023-03-02T23:38:45.095Z,509.00
2023-03-02T23:42:45.028Z,510.00
2023-03-02T23:46:45.034Z,509.00
2023-03-02T23:50:44.964Z,506.00
2023-03-02T23:54:44.948Z,505.00
2023-03-02T23:58:44.903Z,510.00
